sensor_id;sensor_type;location;lat;lon;timestamp;P1;durP1;ratioP1;P2;durP2;ratioP2
76115;SDS011;64847;45.778;12.802;2023-04-03T00:00:54;2.40;;;2.20;;
76115;SDS011;64847;45.778;12.802;2023-04-03T00:03:19;1.97;;;1.87;;
76115;SDS011;64847;45.778;12.802;2023-04-03T00:05:45;2.20;;;1.93;;
76115;SDS011;64847;45.778;12.802;2023-04-03T00:08:11;2.20;;;2.10;;
76115;SDS011;64847;45.778;12.802;2023-04-03T00:10:36;2.20;;;2.10;;
76115;SDS011;64847;45.778;12.802;2023-04-03T00:13:02;2.30;;;2.20;;
76115;SDS011;64847;45.778;12.802;2023-04-03T00:15:28;2.40;;;2.20;;
76115;SDS011;64847;45.778;12.802;2023-04-03T00:17:54;2.20;;;2.10;;
76115;SDS011;64847;45.778;12.802;2023-04-03T00:20:20;2.67;;;2.10;;
76115;SDS011;64847;45.778;12.802;2023-04-03T00:22:45;2.20;;;2.10;;
76115;SDS011;64847;45.778;12.802;2023-04-03T00:25:10;2.70;;;2.50;;
76115;SDS011;64847;45.778;12.802;2023-04-03T00:27:37;2.10;;;2.00;;
76115;SDS011;64847;45.778;12.802;2023-04-03T00:30:03;2.43;;;2.33;;
76115;SDS011;64847;45.778;12.802;2023-04-03T00:32:28;2.17;;;2.07;;
76115;SDS011;64847;45.778;12.802;2023-04-03T00:34:54;2.20;;;2.10;;
76115;SDS011;64847;45.778;12.802;2023-04-03T00:37:19;2.73;;;2.10;;
76115;SDS011;64847;45.778;12.802;2023-04-03T00:39:45;2.03;;;1.93;;
76115;SDS011;64847;45.778;12.802;2023-04-03T00:42:11;2.60;;;1.90;;
76115;SDS011;64847;45.778;12.802;2023-04-03T00:47:02;2.33;;;2.13;;
76115;SDS011;64847;45.778;12.802;2023-04-03T00:49:29;1.97;;;1.87;;
76115;SDS011;64847;45.778;12.802;2023-04-03T00:51:55;1.93;;;1.83;;
76115;SDS011;64847;45.778;12.802;2023-04-03T00:54:20;2.23;;;2.13;;
76115;SDS011;64847;45.778;12.802;2023-04-03T00:56:46;2.10;;;2.00;;
76115;SDS011;64847;45.778;12.802;2023-04-03T00:59:13;2.30;;;2.20;;
76115;SDS011;64847;45.778;12.802;2023-04-03T01:01:41;2.70;;;2.50;;
76115;SDS011;64847;45.778;12.802;2023-04-03T01:04:27;2.37;;;2.20;;
76115;SDS011;64847;45.778;12.802;2023-04-03T01:06:57;3.10;;;2.90;;
76115;SDS011;64847;45.778;12.802;2023-04-03T01:09:27;2.10;;;2.00;;
76115;SDS011;64847;45.778;12.802;2023-04-03T01:11:53;2.80;;;2.67;;
76115;SDS011;64847;45.778;12.802;2023-04-03T01:14:20;2.70;;;2.50;;
76115;SDS011;64847;45.778;12.802;2023-04-03T01:16:52;2.60;;;2.40;;
76115;SDS011;64847;45.778;12.802;2023-04-03T01:19:18;2.50;;;2.40;;
76115;SDS011;64847;45.778;12.802;2023-04-03T01:21:52;2.53;;;2.27;;
76115;SDS011;64847;45.778;12.802;2023-04-03T01:24:30;2.77;;;2.57;;
76115;SDS011;64847;45.778;12.802;2023-04-03T01:26:57;2.83;;;2.60;;
76115;SDS011;64847;45.778;12.802;2023-04-03T01:29:22;2.80;;;2.60;;
76115;SDS011;64847;45.778;12.802;2023-04-03T01:31:56;2.63;;;2.53;;
76115;SDS011;64847;45.778;12.802;2023-04-03T01:34:22;2.77;;;2.60;;
76115;SDS011;64847;45.778;12.802;2023-04-03T01:36:48;2.73;;;2.53;;
76115;SDS011;64847;45.778;12.802;2023-04-03T01:39:14;2.53;;;2.40;;
76115;SDS011;64847;45.778;12.802;2023-04-03T01:41:39;3.00;;;2.80;;
76115;SDS011;64847;45.778;12.802;2023-04-03T01:44:05;2.70;;;2.50;;
76115;SDS011;64847;45.778;12.802;2023-04-03T01:46:30;2.33;;;2.23;;
76115;SDS011;64847;45.778;12.802;2023-04-03T01:48:56;2.90;;;2.70;;
76115;SDS011;64847;45.778;12.802;2023-04-03T01:51:21;2.93;;;2.73;;
76115;SDS011;64847;45.778;12.802;2023-04-03T01:53:47;2.70;;;2.50;;
76115;SDS011;64847;45.778;12.802;2023-04-03T01:56:12;3.00;;;2.80;;
76115;SDS011;64847;45.778;12.802;2023-04-03T01:58:38;2.93;;;2.73;;
76115;SDS011;64847;45.778;12.802;2023-04-03T02:01:03;2.73;;;2.53;;
76115;SDS011;64847;45.778;12.802;2023-04-03T02:03:29;3.37;;;2.80;;
76115;SDS011;64847;45.778;12.802;2023-04-03T02:05:56;3.20;;;2.90;;
76115;SDS011;64847;45.778;12.802;2023-04-03T02:08:21;2.87;;;2.67;;
76115;SDS011;64847;45.778;12.802;2023-04-03T02:10:47;3.60;;;2.73;;
76115;SDS011;64847;45.778;12.802;2023-04-03T02:13:14;2.70;;;2.60;;
76115;SDS011;64847;45.778;12.802;2023-04-03T02:15:40;3.20;;;2.90;;
76115;SDS011;64847;45.778;12.802;2023-04-03T02:18:06;3.60;;;3.10;;
76115;SDS011;64847;45.778;12.802;2023-04-03T02:20:32;2.73;;;2.53;;
76115;SDS011;64847;45.778;12.802;2023-04-03T02:22:57;3.97;;;2.73;;
76115;SDS011;64847;45.778;12.802;2023-04-03T02:25:23;3.03;;;2.53;;
76115;SDS011;64847;45.778;12.802;2023-04-03T02:27:48;2.83;;;2.50;;
76115;SDS011;64847;45.778;12.802;2023-04-03T02:30:14;3.07;;;2.80;;
76115;SDS011;64847;45.778;12.802;2023-04-03T02:32:40;2.80;;;2.60;;
76115;SDS011;64847;45.778;12.802;2023-04-03T02:35:06;2.70;;;2.50;;
76115;SDS011;64847;45.778;12.802;2023-04-03T02:37:31;3.00;;;2.80;;
76115;SDS011;64847;45.778;12.802;2023-04-03T02:39:57;2.33;;;2.23;;
76115;SDS011;64847;45.778;12.802;2023-04-03T02:42:23;2.87;;;2.67;;
76115;SDS011;64847;45.778;12.802;2023-04-03T02:44:49;3.63;;;2.53;;
76115;SDS011;64847;45.778;12.802;2023-04-03T02:47:14;3.07;;;2.87;;
76115;SDS011;64847;45.778;12.802;2023-04-03T02:49:40;2.83;;;2.63;;
76115;SDS011;64847;45.778;12.802;2023-04-03T02:52:05;2.70;;;2.50;;
76115;SDS011;64847;45.778;12.802;2023-04-03T02:54:30;2.67;;;2.47;;
76115;SDS011;64847;45.778;12.802;2023-04-03T02:56:56;2.47;;;2.30;;
76115;SDS011;64847;45.778;12.802;2023-04-03T02:59:23;2.87;;;2.67;;
76115;SDS011;64847;45.778;12.802;2023-04-03T03:01:48;3.10;;;2.80;;
76115;SDS011;64847;45.778;12.802;2023-04-03T03:04:14;3.03;;;2.83;;
76115;SDS011;64847;45.778;12.802;2023-04-03T03:06:39;3.67;;;2.90;;
76115;SDS011;64847;45.778;12.802;2023-04-03T03:09:05;2.70;;;2.60;;
76115;SDS011;64847;45.778;12.802;2023-04-03T03:11:30;2.80;;;2.60;;
76115;SDS011;64847;45.778;12.802;2023-04-03T03:13:56;2.80;;;2.60;;
76115;SDS011;64847;45.778;12.802;2023-04-03T03:16:22;2.93;;;2.73;;
76115;SDS011;64847;45.778;12.802;2023-04-03T03:18:48;3.40;;;3.10;;
76115;SDS011;64847;45.778;12.802;2023-04-03T03:21:13;3.33;;;3.03;;
76115;SDS011;64847;45.778;12.802;2023-04-03T03:23:39;3.60;;;3.30;;
76115;SDS011;64847;45.778;12.802;2023-04-03T03:26:06;3.20;;;3.00;;
76115;SDS011;64847;45.778;12.802;2023-04-03T03:28:33;3.20;;;3.00;;
76115;SDS011;64847;45.778;12.802;2023-04-03T03:31:00;3.40;;;3.20;;
76115;SDS011;64847;45.778;12.802;2023-04-03T03:33:25;3.30;;;3.10;;
76115;SDS011;64847;45.778;12.802;2023-04-03T03:35:52;3.83;;;3.20;;
76115;SDS011;64847;45.778;12.802;2023-04-03T03:38:18;3.20;;;3.00;;
76115;SDS011;64847;45.778;12.802;2023-04-03T03:40:43;3.03;;;2.83;;
76115;SDS011;64847;45.778;12.802;2023-04-03T03:43:09;3.20;;;3.00;;
76115;SDS011;64847;45.778;12.802;2023-04-03T03:45:35;3.30;;;3.10;;
76115;SDS011;64847;45.778;12.802;2023-04-03T03:48:00;3.80;;;3.50;;
76115;SDS011;64847;45.778;12.802;2023-04-03T03:50:27;3.07;;;2.77;;
76115;SDS011;64847;45.778;12.802;2023-04-03T03:52:53;3.40;;;3.10;;
76115;SDS011;64847;45.778;12.802;2023-04-03T03:55:18;3.40;;;3.10;;
76115;SDS011;64847;45.778;12.802;2023-04-03T03:57:44;3.13;;;2.93;;
76115;SDS011;64847;45.778;12.802;2023-04-03T04:00:10;3.47;;;3.17;;
76115;SDS011;64847;45.778;12.802;2023-04-03T04:02:35;2.93;;;2.73;;
76115;SDS011;64847;45.778;12.802;2023-04-03T04:05:01;2.90;;;2.70;;
76115;SDS011;64847;45.778;12.802;2023-04-03T04:07:26;3.30;;;3.00;;
76115;SDS011;64847;45.778;12.802;2023-04-03T04:09:54;3.20;;;3.00;;
76115;SDS011;64847;45.778;12.802;2023-04-03T04:12:20;3.00;;;2.83;;
76115;SDS011;64847;45.778;12.802;2023-04-03T04:14:45;3.43;;;3.10;;
76115;SDS011;64847;45.778;12.802;2023-04-03T04:17:12;3.00;;;2.70;;
76115;SDS011;64847;45.778;12.802;2023-04-03T04:19:37;3.50;;;3.20;;
76115;SDS011;64847;45.778;12.802;2023-04-03T04:22:03;3.60;;;3.30;;
76115;SDS011;64847;45.778;12.802;2023-04-03T04:24:28;3.17;;;2.90;;
76115;SDS011;64847;45.778;12.802;2023-04-03T04:26:54;3.20;;;3.00;;
76115;SDS011;64847;45.778;12.802;2023-04-03T04:29:20;3.33;;;3.13;;
76115;SDS011;64847;45.778;12.802;2023-04-03T04:31:45;3.57;;;2.87;;
76115;SDS011;64847;45.778;12.802;2023-04-03T04:34:11;3.10;;;2.90;;
76115;SDS011;64847;45.778;12.802;2023-04-03T04:36:37;3.23;;;3.03;;
76115;SDS011;64847;45.778;12.802;2023-04-03T04:39:03;3.60;;;2.97;;
76115;SDS011;64847;45.778;12.802;2023-04-03T04:41:29;4.17;;;2.60;;
76115;SDS011;64847;45.778;12.802;2023-04-03T04:43:54;3.83;;;2.97;;
76115;SDS011;64847;45.778;12.802;2023-04-03T04:46:20;3.10;;;2.90;;
76115;SDS011;64847;45.778;12.802;2023-04-03T04:48:46;3.37;;;3.07;;
76115;SDS011;64847;45.778;12.802;2023-04-03T04:51:11;3.87;;;3.47;;
76115;SDS011;64847;45.778;12.802;2023-04-03T04:53:37;3.23;;;3.03;;
76115;SDS011;64847;45.778;12.802;2023-04-03T04:56:02;2.90;;;2.70;;
76115;SDS011;64847;45.778;12.802;2023-04-03T04:58:28;3.57;;;3.03;;
76115;SDS011;64847;45.778;12.802;2023-04-03T05:01:01;3.47;;;3.17;;
76115;SDS011;64847;45.778;12.802;2023-04-03T05:03:30;3.53;;;3.23;;
76115;SDS011;64847;45.778;12.802;2023-04-03T05:05:56;3.30;;;3.00;;
76115;SDS011;64847;45.778;12.802;2023-04-03T05:08:22;2.97;;;2.77;;
76115;SDS011;64847;45.778;12.802;2023-04-03T05:10:47;3.07;;;2.87;;
76115;SDS011;64847;45.778;12.802;2023-04-03T05:13:13;2.97;;;2.77;;
76115;SDS011;64847;45.778;12.802;2023-04-03T05:15:39;3.33;;;3.13;;
76115;SDS011;64847;45.778;12.802;2023-04-03T05:18:05;3.30;;;3.10;;
76115;SDS011;64847;45.778;12.802;2023-04-03T05:20:31;5.07;;;3.33;;
76115;SDS011;64847;45.778;12.802;2023-04-03T05:22:56;4.87;;;3.67;;
76115;SDS011;64847;45.778;12.802;2023-04-03T05:25:22;4.20;;;3.47;;
76115;SDS011;64847;45.778;12.802;2023-04-03T05:27:47;4.00;;;3.70;;
76115;SDS011;64847;45.778;12.802;2023-04-03T05:30:13;3.53;;;3.23;;
76115;SDS011;64847;45.778;12.802;2023-04-03T05:32:38;3.77;;;3.43;;
76115;SDS011;64847;45.778;12.802;2023-04-03T05:35:05;3.20;;;3.00;;
76115;SDS011;64847;45.778;12.802;2023-04-03T05:37:31;3.20;;;3.00;;
76115;SDS011;64847;45.778;12.802;2023-04-03T05:39:56;3.00;;;2.80;;
76115;SDS011;64847;45.778;12.802;2023-04-03T05:42:22;2.63;;;2.53;;
76115;SDS011;64847;45.778;12.802;2023-04-03T05:44:48;3.23;;;2.10;;
76115;SDS011;64847;45.778;12.802;2023-04-03T05:47:15;2.93;;;2.73;;
76115;SDS011;64847;45.778;12.802;2023-04-03T05:49:41;3.47;;;2.90;;
76115;SDS011;64847;45.778;12.802;2023-04-03T05:52:11;2.97;;;2.77;;
76115;SDS011;64847;45.778;12.802;2023-04-03T05:54:44;2.67;;;2.57;;
76115;SDS011;64847;45.778;12.802;2023-04-03T05:57:13;2.40;;;2.20;;
76115;SDS011;64847;45.778;12.802;2023-04-03T05:59:38;2.30;;;2.20;;
76115;SDS011;64847;45.778;12.802;2023-04-03T06:02:04;2.47;;;2.23;;
76115;SDS011;64847;45.778;12.802;2023-04-03T06:04:30;1.93;;;1.83;;
76115;SDS011;64847;45.778;12.802;2023-04-03T06:06:56;1.53;;;1.43;;
76115;SDS011;64847;45.778;12.802;2023-04-03T06:09:24;1.30;;;1.30;;
76115;SDS011;64847;45.778;12.802;2023-04-03T06:11:51;1.80;;;1.70;;
76115;SDS011;64847;45.778;12.802;2023-04-03T06:14:18;1.73;;;1.63;;
76115;SDS011;64847;45.778;12.802;2023-04-03T06:16:43;1.40;;;1.30;;
76115;SDS011;64847;45.778;12.802;2023-04-03T06:19:11;1.53;;;1.43;;
76115;SDS011;64847;45.778;12.802;2023-04-03T06:21:37;1.60;;;1.50;;
76115;SDS011;64847;45.778;12.802;2023-04-03T06:24:04;1.30;;;1.30;;
76115;SDS011;64847;45.778;12.802;2023-04-03T06:26:29;1.80;;;1.40;;
76115;SDS011;64847;45.778;12.802;2023-04-03T06:28:55;1.10;;;1.10;;
76115;SDS011;64847;45.778;12.802;2023-04-03T06:31:21;1.40;;;1.30;;
76115;SDS011;64847;45.778;12.802;2023-04-03T06:33:46;1.10;;;1.10;;
76115;SDS011;64847;45.778;12.802;2023-04-03T06:36:12;1.50;;;1.50;;
76115;SDS011;64847;45.778;12.802;2023-04-03T06:38:37;1.40;;;1.30;;
76115;SDS011;64847;45.778;12.802;2023-04-03T06:41:02;1.33;;;1.27;;
76115;SDS011;64847;45.778;12.802;2023-04-03T06:43:28;1.40;;;1.30;;
76115;SDS011;64847;45.778;12.802;2023-04-03T06:45:53;1.20;;;1.20;;
76115;SDS011;64847;45.778;12.802;2023-04-03T06:48:19;1.43;;;1.40;;
76115;SDS011;64847;45.778;12.802;2023-04-03T06:50:44;1.17;;;1.10;;
76115;SDS011;64847;45.778;12.802;2023-04-03T06:53:10;1.33;;;1.23;;
76115;SDS011;64847;45.778;12.802;2023-04-03T06:55:35;1.43;;;1.43;;
76115;SDS011;64847;45.778;12.802;2023-04-03T06:58:02;1.60;;;1.40;;
76115;SDS011;64847;45.778;12.802;2023-04-03T07:00:28;1.40;;;1.30;;
76115;SDS011;64847;45.778;12.802;2023-04-03T07:02:54;1.33;;;1.10;;
76115;SDS011;64847;45.778;12.802;2023-04-03T07:05:21;1.17;;;1.17;;
76115;SDS011;64847;45.778;12.802;2023-04-03T07:07:46;1.10;;;1.10;;
76115;SDS011;64847;45.778;12.802;2023-04-03T07:10:12;1.48;;;1.40;;
76115;SDS011;64847;45.778;12.802;2023-04-03T07:12:37;1.20;;;1.20;;
76115;SDS011;64847;45.778;12.802;2023-04-03T07:15:04;1.20;;;1.20;;
76115;SDS011;64847;45.778;12.802;2023-04-03T07:17:30;1.20;;;1.20;;
76115;SDS011;64847;45.778;12.802;2023-04-03T07:19:56;1.10;;;1.10;;
76115;SDS011;64847;45.778;12.802;2023-04-03T07:22:22;1.27;;;1.27;;
76115;SDS011;64847;45.778;12.802;2023-04-03T07:24:48;1.10;;;1.10;;
76115;SDS011;64847;45.778;12.802;2023-04-03T07:27:14;1.20;;;1.20;;
76115;SDS011;64847;45.778;12.802;2023-04-03T07:29:39;1.10;;;1.10;;
76115;SDS011;64847;45.778;12.802;2023-04-03T07:32:05;1.40;;;1.40;;
76115;SDS011;64847;45.778;12.802;2023-04-03T07:34:31;1.20;;;1.20;;
76115;SDS011;64847;45.778;12.802;2023-04-03T07:36:57;1.27;;;1.27;;
76115;SDS011;64847;45.778;12.802;2023-04-03T07:39:23;1.40;;;1.40;;
76115;SDS011;64847;45.778;12.802;2023-04-03T07:41:48;1.38;;;1.35;;
76115;SDS011;64847;45.778;12.802;2023-04-03T07:44:14;1.42;;;1.42;;
76115;SDS011;64847;45.778;12.802;2023-04-03T07:46:40;1.50;;;1.40;;
76115;SDS011;64847;45.778;12.802;2023-04-03T07:49:05;1.40;;;1.30;;
76115;SDS011;64847;45.778;12.802;2023-04-03T07:51:32;1.30;;;1.30;;
76115;SDS011;64847;45.778;12.802;2023-04-03T07:53:58;1.35;;;1.35;;
76115;SDS011;64847;45.778;12.802;2023-04-03T07:56:23;1.35;;;1.35;;
76115;SDS011;64847;45.778;12.802;2023-04-03T07:58:50;1.20;;;1.20;;
76115;SDS011;64847;45.778;12.802;2023-04-03T08:01:15;1.20;;;1.20;;
76115;SDS011;64847;45.778;12.802;2023-04-03T08:03:41;1.35;;;1.35;;
76115;SDS011;64847;45.778;12.802;2023-04-03T08:06:08;1.02;;;1.02;;
76115;SDS011;64847;45.778;12.802;2023-04-03T08:08:33;1.95;;;1.42;;
76115;SDS011;64847;45.778;12.802;2023-04-03T08:11:00;1.40;;;1.30;;
76115;SDS011;64847;45.778;12.802;2023-04-03T08:13:28;1.20;;;1.20;;
76115;SDS011;64847;45.778;12.802;2023-04-03T08:15:54;2.08;;;1.30;;
76115;SDS011;64847;45.778;12.802;2023-04-03T08:18:20;1.20;;;1.20;;
76115;SDS011;64847;45.778;12.802;2023-04-03T08:20:49;1.48;;;1.30;;
76115;SDS011;64847;45.778;12.802;2023-04-03T08:23:15;1.20;;;1.20;;
76115;SDS011;64847;45.778;12.802;2023-04-03T08:25:41;1.20;;;1.20;;
76115;SDS011;64847;45.778;12.802;2023-04-03T08:28:08;1.38;;;1.38;;
76115;SDS011;64847;45.778;12.802;2023-04-03T08:30:34;1.50;;;1.40;;
76115;SDS011;64847;45.778;12.802;2023-04-03T08:33:03;1.25;;;1.23;;
76115;SDS011;64847;45.778;12.802;2023-04-03T08:35:30;1.25;;;1.15;;
76115;SDS011;64847;45.778;12.802;2023-04-03T08:37:56;1.10;;;1.10;;
76115;SDS011;64847;45.778;12.802;2023-04-03T08:40:22;1.20;;;1.20;;
76115;SDS011;64847;45.778;12.802;2023-04-03T08:42:57;1.10;;;1.10;;
76115;SDS011;64847;45.778;12.802;2023-04-03T08:48:16;1.20;;;1.20;;
76115;SDS011;64847;45.778;12.802;2023-04-03T08:50:46;1.30;;;1.20;;
76115;SDS011;64847;45.778;12.802;2023-04-03T08:53:14;1.92;;;1.40;;
76115;SDS011;64847;45.778;12.802;2023-04-03T09:03:14;1.15;;;1.15;;
76115;SDS011;64847;45.778;12.802;2023-04-03T09:05:44;1.20;;;1.20;;
76115;SDS011;64847;45.778;12.802;2023-04-03T09:08:22;1.27;;;1.20;;
76115;SDS011;64847;45.778;12.802;2023-04-03T09:10:48;1.75;;;1.20;;
76115;SDS011;64847;45.778;12.802;2023-04-03T09:13:28;1.20;;;1.20;;
76115;SDS011;64847;45.778;12.802;2023-04-03T09:16:02;1.00;;;1.00;;
76115;SDS011;64847;45.778;12.802;2023-04-03T09:18:36;1.20;;;1.20;;
76115;SDS011;64847;45.778;12.802;2023-04-03T09:23:53;1.00;;;1.00;;
76115;SDS011;64847;45.778;12.802;2023-04-03T09:29:25;1.00;;;1.00;;
76115;SDS011;64847;45.778;12.802;2023-04-03T09:31:56;1.10;;;1.10;;
76115;SDS011;64847;45.778;12.802;2023-04-03T09:34:24;1.10;;;1.10;;
76115;SDS011;64847;45.778;12.802;2023-04-03T09:36:53;1.70;;;1.27;;
76115;SDS011;64847;45.778;12.802;2023-04-03T09:39:21;1.05;;;1.05;;
76115;SDS011;64847;45.778;12.802;2023-04-03T09:42:05;1.00;;;1.00;;
76115;SDS011;64847;45.778;12.802;2023-04-03T09:44:40;1.10;;;1.10;;
76115;SDS011;64847;45.778;12.802;2023-04-03T09:47:21;3.08;;;1.30;;
76115;SDS011;64847;45.778;12.802;2023-04-03T09:49:50;1.20;;;1.20;;
76115;SDS011;64847;45.778;12.802;2023-04-03T09:52:26;1.10;;;1.10;;
76115;SDS011;64847;45.778;12.802;2023-04-03T09:54:51;1.00;;;0.93;;
76115;SDS011;64847;45.778;12.802;2023-04-03T09:57:17;1.02;;;1.02;;
76115;SDS011;64847;45.778;12.802;2023-04-03T09:59:48;1.15;;;1.15;;
76115;SDS011;64847;45.778;12.802;2023-04-03T10:04:54;0.90;;;0.90;;
76115;SDS011;64847;45.778;12.802;2023-04-03T10:09:55;1.33;;;1.10;;
76115;SDS011;64847;45.778;12.802;2023-04-03T10:12:27;1.58;;;1.20;;
76115;SDS011;64847;45.778;12.802;2023-04-03T10:14:57;1.20;;;1.20;;
76115;SDS011;64847;45.778;12.802;2023-04-03T10:25:54;1.00;;;1.00;;
76115;SDS011;64847;45.778;12.802;2023-04-03T10:40:02;2.47;;;1.73;;
76115;SDS011;64847;45.778;12.802;2023-04-03T10:42:29;1.30;;;1.30;;
76115;SDS011;64847;45.778;12.802;2023-04-03T10:45:01;1.30;;;1.20;;
76115;SDS011;64847;45.778;12.802;2023-04-03T10:50:11;1.08;;;1.08;;
76115;SDS011;64847;45.778;12.802;2023-04-03T10:52:52;1.30;;;1.20;;
76115;SDS011;64847;45.778;12.802;2023-04-03T10:57:52;1.67;;;1.10;;
76115;SDS011;64847;45.778;12.802;2023-04-03T11:00:19;1.10;;;1.10;;
76115;SDS011;64847;45.778;12.802;2023-04-03T11:02:54;1.00;;;1.00;;
76115;SDS011;64847;45.778;12.802;2023-04-03T11:05:26;1.00;;;1.00;;
76115;SDS011;64847;45.778;12.802;2023-04-03T11:07:55;1.02;;;1.02;;
76115;SDS011;64847;45.778;12.802;2023-04-03T11:13:13;1.15;;;1.15;;
76115;SDS011;64847;45.778;12.802;2023-04-03T11:15:41;1.20;;;1.20;;
76115;SDS011;64847;45.778;12.802;2023-04-03T11:18:14;1.15;;;1.15;;
76115;SDS011;64847;45.778;12.802;2023-04-03T11:20:47;1.10;;;1.10;;
76115;SDS011;64847;45.778;12.802;2023-04-03T11:23:26;1.20;;;1.20;;
76115;SDS011;64847;45.778;12.802;2023-04-03T11:25:56;1.08;;;1.08;;
76115;SDS011;64847;45.778;12.802;2023-04-03T11:28:30;1.17;;;1.17;;
76115;SDS011;64847;45.778;12.802;2023-04-03T11:36:09;1.20;;;1.20;;
76115;SDS011;64847;45.778;12.802;2023-04-03T11:38:41;1.25;;;1.25;;
76115;SDS011;64847;45.778;12.802;2023-04-03T11:41:08;1.20;;;1.20;;
76115;SDS011;64847;45.778;12.802;2023-04-03T11:43:39;1.00;;;1.00;;
76115;SDS011;64847;45.778;12.802;2023-04-03T11:46:06;1.13;;;1.13;;
76115;SDS011;64847;45.778;12.802;2023-04-03T11:53:52;1.10;;;1.10;;
76115;SDS011;64847;45.778;12.802;2023-04-03T12:01:49;1.20;;;1.20;;
76115;SDS011;64847;45.778;12.802;2023-04-03T12:04:15;1.27;;;1.20;;
76115;SDS011;64847;45.778;12.802;2023-04-03T12:11:52;1.23;;;1.23;;
76115;SDS011;64847;45.778;12.802;2023-04-03T12:14:18;1.38;;;1.27;;
76115;SDS011;64847;45.778;12.802;2023-04-03T12:16:45;1.42;;;1.30;;
76115;SDS011;64847;45.778;12.802;2023-04-03T12:43:17;1.27;;;1.27;;
76115;SDS011;64847;45.778;12.802;2023-04-03T12:48:26;1.40;;;1.30;;
76115;SDS011;64847;45.778;12.802;2023-04-03T12:50:52;1.95;;;1.25;;
76115;SDS011;64847;45.778;12.802;2023-04-03T12:53:19;1.20;;;1.20;;
76115;SDS011;64847;45.778;12.802;2023-04-03T12:58:51;1.92;;;1.20;;
76115;SDS011;64847;45.778;12.802;2023-04-03T13:01:20;1.33;;;1.20;;
76115;SDS011;64847;45.778;12.802;2023-04-03T13:03:56;2.25;;;1.50;;
76115;SDS011;64847;45.778;12.802;2023-04-03T13:06:23;2.55;;;1.40;;
76115;SDS011;64847;45.778;12.802;2023-04-03T13:08:52;2.08;;;1.45;;
76115;SDS011;64847;45.778;12.802;2023-04-03T13:11:23;1.60;;;1.48;;
76115;SDS011;64847;45.778;12.802;2023-04-03T13:13:54;1.73;;;1.40;;
76115;SDS011;64847;45.778;12.802;2023-04-03T13:16:23;1.92;;;1.23;;
76115;SDS011;64847;45.778;12.802;2023-04-03T13:18:50;2.65;;;1.30;;
76115;SDS011;64847;45.778;12.802;2023-04-03T13:21:18;1.98;;;1.40;;
76115;SDS011;64847;45.778;12.802;2023-04-03T13:23:46;1.25;;;1.25;;
76115;SDS011;64847;45.778;12.802;2023-04-03T13:26:15;1.58;;;1.40;;
76115;SDS011;64847;45.778;12.802;2023-04-03T13:28:42;1.33;;;1.23;;
76115;SDS011;64847;45.778;12.802;2023-04-03T13:31:19;1.20;;;1.20;;
76115;SDS011;64847;45.778;12.802;2023-04-03T13:36:32;2.00;;;1.33;;
76115;SDS011;64847;45.778;12.802;2023-04-03T13:41:32;1.38;;;1.10;;
76115;SDS011;64847;45.778;12.802;2023-04-03T13:46:52;1.23;;;1.23;;
76115;SDS011;64847;45.778;12.802;2023-04-03T13:49:39;1.13;;;1.13;;
76115;SDS011;64847;45.778;12.802;2023-04-03T13:54:48;2.50;;;1.17;;
76115;SDS011;64847;45.778;12.802;2023-04-03T13:57:18;2.10;;;1.20;;
76115;SDS011;64847;45.778;12.802;2023-04-03T13:59:43;1.58;;;1.10;;
76115;SDS011;64847;45.778;12.802;2023-04-03T14:04:58;1.60;;;1.20;;
76115;SDS011;64847;45.778;12.802;2023-04-03T14:07:26;1.83;;;1.10;;
76115;SDS011;64847;45.778;12.802;2023-04-03T14:09:53;2.27;;;1.20;;
76115;SDS011;64847;45.778;12.802;2023-04-03T14:14:59;1.13;;;1.10;;
76115;SDS011;64847;45.778;12.802;2023-04-03T14:17:26;2.43;;;1.00;;
76115;SDS011;64847;45.778;12.802;2023-04-03T14:19:53;1.57;;;1.30;;
76115;SDS011;64847;45.778;12.802;2023-04-03T14:22:30;2.73;;;1.10;;
76115;SDS011;64847;45.778;12.802;2023-04-03T14:24:56;2.73;;;1.10;;
76115;SDS011;64847;45.778;12.802;2023-04-03T14:27:23;3.83;;;1.10;;
76115;SDS011;64847;45.778;12.802;2023-04-03T14:29:52;2.13;;;1.30;;
76115;SDS011;64847;45.778;12.802;2023-04-03T14:32:19;1.00;;;1.00;;
76115;SDS011;64847;45.778;12.802;2023-04-03T14:34:46;1.10;;;1.03;;
76115;SDS011;64847;45.778;12.802;2023-04-03T14:37:12;3.50;;;1.20;;
76115;SDS011;64847;45.778;12.802;2023-04-03T14:39:40;1.00;;;1.00;;
76115;SDS011;64847;45.778;12.802;2023-04-03T14:42:06;3.07;;;1.30;;
76115;SDS011;64847;45.778;12.802;2023-04-03T14:44:31;1.63;;;1.07;;
76115;SDS011;64847;45.778;12.802;2023-04-03T14:46:57;1.33;;;1.10;;
76115;SDS011;64847;45.778;12.802;2023-04-03T14:49:24;2.03;;;1.20;;
76115;SDS011;64847;45.778;12.802;2023-04-03T14:51:51;1.10;;;1.10;;
76115;SDS011;64847;45.778;12.802;2023-04-03T14:54:19;1.13;;;1.13;;
76115;SDS011;64847;45.778;12.802;2023-04-03T14:56:50;1.13;;;1.07;;
76115;SDS011;64847;45.778;12.802;2023-04-03T14:59:16;3.43;;;1.40;;
76115;SDS011;64847;45.778;12.802;2023-04-03T15:01:45;1.10;;;1.10;;
76115;SDS011;64847;45.778;12.802;2023-04-03T15:04:13;1.10;;;1.10;;
76115;SDS011;64847;45.778;12.802;2023-04-03T15:06:40;2.00;;;1.17;;
76115;SDS011;64847;45.778;12.802;2023-04-03T15:09:09;1.43;;;1.07;;
76115;SDS011;64847;45.778;12.802;2023-04-03T15:11:48;4.27;;;1.13;;
76115;SDS011;64847;45.778;12.802;2023-04-03T15:14:15;4.07;;;1.20;;
76115;SDS011;64847;45.778;12.802;2023-04-03T15:16:40;1.50;;;1.00;;
76115;SDS011;64847;45.778;12.802;2023-04-03T15:19:06;3.23;;;1.20;;
76115;SDS011;64847;45.778;12.802;2023-04-03T15:21:31;1.33;;;1.20;;
76115;SDS011;64847;45.778;12.802;2023-04-03T15:23:56;2.40;;;1.20;;
76115;SDS011;64847;45.778;12.802;2023-04-03T15:26:22;2.30;;;1.10;;
76115;SDS011;64847;45.778;12.802;2023-04-03T15:28:47;2.87;;;1.40;;
76115;SDS011;64847;45.778;12.802;2023-04-03T15:31:12;1.23;;;1.13;;
76115;SDS011;64847;45.778;12.802;2023-04-03T15:33:38;1.20;;;1.07;;
76115;SDS011;64847;45.778;12.802;2023-04-03T15:36:04;1.40;;;1.30;;
76115;SDS011;64847;45.778;12.802;2023-04-03T15:38:30;1.20;;;1.20;;
76115;SDS011;64847;45.778;12.802;2023-04-03T15:40:55;1.10;;;1.10;;
76115;SDS011;64847;45.778;12.802;2023-04-03T15:43:21;2.27;;;1.00;;
76115;SDS011;64847;45.778;12.802;2023-04-03T15:45:47;1.03;;;1.03;;
76115;SDS011;64847;45.778;12.802;2023-04-03T15:48:14;1.13;;;1.13;;
76115;SDS011;64847;45.778;12.802;2023-04-03T15:50:39;1.17;;;1.17;;
76115;SDS011;64847;45.778;12.802;2023-04-03T15:53:05;0.93;;;0.93;;
76115;SDS011;64847;45.778;12.802;2023-04-03T15:55:31;1.80;;;1.17;;
76115;SDS011;64847;45.778;12.802;2023-04-03T15:57:59;1.80;;;0.97;;
76115;SDS011;64847;45.778;12.802;2023-04-03T16:00:25;1.00;;;1.00;;
76115;SDS011;64847;45.778;12.802;2023-04-03T16:02:55;1.30;;;1.30;;
76115;SDS011;64847;45.778;12.802;2023-04-03T16:05:24;2.23;;;1.10;;
76115;SDS011;64847;45.778;12.802;2023-04-03T16:07:50;1.33;;;1.00;;
76115;SDS011;64847;45.778;12.802;2023-04-03T16:10:17;1.23;;;1.00;;
76115;SDS011;64847;45.778;12.802;2023-04-03T16:12:43;1.00;;;0.90;;
76115;SDS011;64847;45.778;12.802;2023-04-03T16:15:08;1.53;;;1.10;;
76115;SDS011;64847;45.778;12.802;2023-04-03T16:17:35;1.03;;;1.00;;
76115;SDS011;64847;45.778;12.802;2023-04-03T16:20:01;1.10;;;1.10;;
76115;SDS011;64847;45.778;12.802;2023-04-03T16:22:28;1.03;;;1.00;;
76115;SDS011;64847;45.778;12.802;2023-04-03T16:24:53;1.20;;;1.10;;
76115;SDS011;64847;45.778;12.802;2023-04-03T16:27:19;1.70;;;1.20;;
76115;SDS011;64847;45.778;12.802;2023-04-03T16:29:45;1.90;;;1.10;;
76115;SDS011;64847;45.778;12.802;2023-04-03T16:32:11;1.93;;;1.13;;